sensor_id;sensor_type;location;lat;lon;timestamp;P1;durP1;ratioP1;P2;durP2;ratioP2
69714;SDS011;56981;53.532;49.398;2023-06-24T00:01:01;9.90;;;3.67;;
69714;SDS011;56981;53.532;49.398;2023-06-24T00:03:28;5.60;;;3.30;;
69714;SDS011;56981;53.532;49.398;2023-06-24T00:05:54;5.85;;;3.95;;
69714;SDS011;56981;53.532;49.398;2023-06-24T00:08:22;5.20;;;3.17;;
69714;SDS011;56981;53.532;49.398;2023-06-24T00:10:49;5.28;;;3.67;;
69714;SDS011;56981;53.532;49.398;2023-06-24T00:13:16;6.07;;;3.67;;
69714;SDS011;56981;53.532;49.398;2023-06-24T00:15:43;5.72;;;3.72;;
69714;SDS011;56981;53.532;49.398;2023-06-24T00:18:09;6.70;;;3.83;;
69714;SDS011;56981;53.532;49.398;2023-06-24T00:20:36;6.50;;;3.85;;
69714;SDS011;56981;53.532;49.398;2023-06-24T00:23:02;5.53;;;3.42;;
69714;SDS011;56981;53.532;49.398;2023-06-24T00:25:29;6.03;;;3.90;;
69714;SDS011;56981;53.532;49.398;2023-06-24T00:27:56;8.23;;;3.83;;
69714;SDS011;56981;53.532;49.398;2023-06-24T00:30:22;7.53;;;3.83;;
69714;SDS011;56981;53.532;49.398;2023-06-24T00:32:48;5.80;;;3.55;;
69714;SDS011;56981;53.532;49.398;2023-06-24T00:35:15;5.47;;;3.38;;
69714;SDS011;56981;53.532;49.398;2023-06-24T00:37:41;6.40;;;3.83;;
69714;SDS011;56981;53.532;49.398;2023-06-24T00:40:11;7.95;;;3.55;;
69714;SDS011;56981;53.532;49.398;2023-06-24T00:42:41;5.57;;;3.40;;
69714;SDS011;56981;53.532;49.398;2023-06-24T00:45:11;5.63;;;3.47;;
69714;SDS011;56981;53.532;49.398;2023-06-24T00:47:38;6.78;;;3.75;;
69714;SDS011;56981;53.532;49.398;2023-06-24T00:50:04;7.57;;;3.65;;
69714;SDS011;56981;53.532;49.398;2023-06-24T00:52:31;5.65;;;3.47;;
69714;SDS011;56981;53.532;49.398;2023-06-24T00:54:58;5.78;;;4.30;;
69714;SDS011;56981;53.532;49.398;2023-06-24T00:57:24;7.57;;;3.28;;
69714;SDS011;56981;53.532;49.398;2023-06-24T00:59:51;5.95;;;3.67;;
69714;SDS011;56981;53.532;49.398;2023-06-24T01:02:20;6.00;;;3.60;;
69714;SDS011;56981;53.532;49.398;2023-06-24T01:04:48;5.72;;;3.35;;
69714;SDS011;56981;53.532;49.398;2023-06-24T01:07:14;4.72;;;3.00;;
69714;SDS011;56981;53.532;49.398;2023-06-24T01:09:42;4.88;;;3.42;;
69714;SDS011;56981;53.532;49.398;2023-06-24T01:12:08;5.68;;;3.60;;
69714;SDS011;56981;53.532;49.398;2023-06-24T01:14:35;5.50;;;3.35;;
69714;SDS011;56981;53.532;49.398;2023-06-24T01:25:33;3.92;;;2.92;;
69714;SDS011;56981;53.532;49.398;2023-06-24T01:33:46;4.13;;;3.45;;
69714;SDS011;56981;53.532;49.398;2023-06-24T01:36:15;5.47;;;3.40;;
69714;SDS011;56981;53.532;49.398;2023-06-24T01:38:47;6.45;;;3.67;;
69714;SDS011;56981;53.532;49.398;2023-06-24T01:41:20;3.97;;;3.58;;
69714;SDS011;56981;53.532;49.398;2023-06-24T01:43:50;4.28;;;3.00;;
69714;SDS011;56981;53.532;49.398;2023-06-24T01:46:22;5.70;;;3.70;;
69714;SDS011;56981;53.532;49.398;2023-06-24T01:48:49;6.00;;;3.47;;
69714;SDS011;56981;53.532;49.398;2023-06-24T01:51:19;4.88;;;3.63;;
69714;SDS011;56981;53.532;49.398;2023-06-24T01:53:52;5.65;;;3.60;;
69714;SDS011;56981;53.532;49.398;2023-06-24T01:56:24;5.38;;;4.22;;
69714;SDS011;56981;53.532;49.398;2023-06-24T01:58:53;3.90;;;3.33;;
69714;SDS011;56981;53.532;49.398;2023-06-24T02:01:21;4.82;;;3.55;;
69714;SDS011;56981;53.532;49.398;2023-06-24T02:03:48;5.93;;;3.70;;
69714;SDS011;56981;53.532;49.398;2023-06-24T02:06:16;4.20;;;3.70;;
69714;SDS011;56981;53.532;49.398;2023-06-24T02:08:45;4.53;;;3.92;;
69714;SDS011;56981;53.532;49.398;2023-06-24T02:11:14;5.65;;;3.90;;
69714;SDS011;56981;53.532;49.398;2023-06-24T02:13:42;5.30;;;3.50;;
69714;SDS011;56981;53.532;49.398;2023-06-24T02:16:09;6.85;;;4.07;;
69714;SDS011;56981;53.532;49.398;2023-06-24T02:18:37;6.28;;;3.92;;
69714;SDS011;56981;53.532;49.398;2023-06-24T02:21:07;5.03;;;4.00;;
69714;SDS011;56981;53.532;49.398;2023-06-24T02:23:35;5.40;;;3.70;;
69714;SDS011;56981;53.532;49.398;2023-06-24T02:26:03;4.35;;;3.78;;
69714;SDS011;56981;53.532;49.398;2023-06-24T02:28:32;5.32;;;3.83;;
69714;SDS011;56981;53.532;49.398;2023-06-24T02:30:58;3.90;;;3.50;;
69714;SDS011;56981;53.532;49.398;2023-06-24T02:33:25;4.47;;;3.67;;
69714;SDS011;56981;53.532;49.398;2023-06-24T02:35:52;4.00;;;3.30;;
69714;SDS011;56981;53.532;49.398;2023-06-24T02:38:18;5.28;;;3.70;;
69714;SDS011;56981;53.532;49.398;2023-06-24T02:40:47;4.63;;;3.88;;
69714;SDS011;56981;53.532;49.398;2023-06-24T02:45:47;3.78;;;3.38;;
69714;SDS011;56981;53.532;49.398;2023-06-24T02:48:15;4.38;;;3.35;;
69714;SDS011;56981;53.532;49.398;2023-06-24T02:50:43;3.42;;;3.13;;
69714;SDS011;56981;53.532;49.398;2023-06-24T02:53:12;4.20;;;3.80;;
69714;SDS011;56981;53.532;49.398;2023-06-24T02:55:40;4.90;;;3.47;;
69714;SDS011;56981;53.532;49.398;2023-06-24T02:58:07;4.78;;;3.55;;
69714;SDS011;56981;53.532;49.398;2023-06-24T03:00:38;3.75;;;3.35;;
69714;SDS011;56981;53.532;49.398;2023-06-24T03:03:05;3.55;;;3.25;;
69714;SDS011;56981;53.532;49.398;2023-06-24T03:05:32;3.53;;;3.15;;
69714;SDS011;56981;53.532;49.398;2023-06-24T03:07:59;3.72;;;3.35;;
69714;SDS011;56981;53.532;49.398;2023-06-24T03:10:26;5.13;;;3.63;;
69714;SDS011;56981;53.532;49.398;2023-06-24T03:12:52;7.00;;;3.65;;
69714;SDS011;56981;53.532;49.398;2023-06-24T03:15:19;4.88;;;3.17;;
69714;SDS011;56981;53.532;49.398;2023-06-24T03:17:45;4.97;;;3.22;;
69714;SDS011;56981;53.532;49.398;2023-06-24T03:20:12;3.90;;;3.53;;
69714;SDS011;56981;53.532;49.398;2023-06-24T03:22:38;3.45;;;3.15;;
69714;SDS011;56981;53.532;49.398;2023-06-24T03:25:04;3.35;;;3.00;;
69714;SDS011;56981;53.532;49.398;2023-06-24T03:27:30;3.42;;;3.03;;
69714;SDS011;56981;53.532;49.398;2023-06-24T03:29:57;3.35;;;2.97;;
69714;SDS011;56981;53.532;49.398;2023-06-24T03:32:23;3.15;;;2.85;;
69714;SDS011;56981;53.532;49.398;2023-06-24T03:34:49;3.60;;;2.80;;
69714;SDS011;56981;53.532;49.398;2023-06-24T03:37:15;3.22;;;2.92;;
69714;SDS011;56981;53.532;49.398;2023-06-24T03:39:41;2.72;;;2.53;;
69714;SDS011;56981;53.532;49.398;2023-06-24T03:42:07;4.10;;;2.47;;
69714;SDS011;56981;53.532;49.398;2023-06-24T03:44:34;2.72;;;2.53;;
69714;SDS011;56981;53.532;49.398;2023-06-24T03:47:00;2.53;;;2.33;;
69714;SDS011;56981;53.532;49.398;2023-06-24T03:49:26;2.70;;;2.50;;
69714;SDS011;56981;53.532;49.398;2023-06-24T03:51:52;3.33;;;2.53;;
69714;SDS011;56981;53.532;49.398;2023-06-24T03:54:18;2.50;;;2.30;;
69714;SDS011;56981;53.532;49.398;2023-06-24T03:56:45;2.95;;;2.40;;
69714;SDS011;56981;53.532;49.398;2023-06-24T03:59:11;2.53;;;2.33;;
69714;SDS011;56981;53.532;49.398;2023-06-24T04:01:38;4.55;;;2.60;;
69714;SDS011;56981;53.532;49.398;2023-06-24T04:04:04;3.20;;;2.28;;
69714;SDS011;56981;53.532;49.398;2023-06-24T04:06:30;2.42;;;2.22;;
69714;SDS011;56981;53.532;49.398;2023-06-24T04:08:57;2.00;;;1.77;;
69714;SDS011;56981;53.532;49.398;2023-06-24T04:11:24;2.67;;;2.20;;
69714;SDS011;56981;53.532;49.398;2023-06-24T04:13:50;2.97;;;2.67;;
69714;SDS011;56981;53.532;49.398;2023-06-24T04:16:16;2.88;;;2.60;;
69714;SDS011;56981;53.532;49.398;2023-06-24T04:18:42;2.53;;;2.33;;
69714;SDS011;56981;53.532;49.398;2023-06-24T04:21:16;2.72;;;2.30;;
69714;SDS011;56981;53.532;49.398;2023-06-24T04:23:46;2.80;;;2.08;;
69714;SDS011;56981;53.532;49.398;2023-06-24T04:26:13;2.45;;;2.28;;
69714;SDS011;56981;53.532;49.398;2023-06-24T04:28:39;3.28;;;2.22;;
69714;SDS011;56981;53.532;49.398;2023-06-24T04:31:06;2.35;;;2.15;;
69714;SDS011;56981;53.532;49.398;2023-06-24T04:33:32;2.65;;;2.08;;
69714;SDS011;56981;53.532;49.398;2023-06-24T04:35:58;2.90;;;2.60;;
69714;SDS011;56981;53.532;49.398;2023-06-24T04:38:25;2.75;;;2.50;;
69714;SDS011;56981;53.532;49.398;2023-06-24T04:40:52;2.42;;;2.20;;
69714;SDS011;56981;53.532;49.398;2023-06-24T04:43:18;2.53;;;1.90;;
69714;SDS011;56981;53.532;49.398;2023-06-24T04:45:47;2.22;;;1.90;;
69714;SDS011;56981;53.532;49.398;2023-06-24T04:48:13;2.20;;;2.00;;
69714;SDS011;56981;53.532;49.398;2023-06-24T04:50:39;2.25;;;1.92;;
69714;SDS011;56981;53.532;49.398;2023-06-24T04:53:06;2.03;;;1.92;;
69714;SDS011;56981;53.532;49.398;2023-06-24T04:55:32;2.00;;;1.90;;
69714;SDS011;56981;53.532;49.398;2023-06-24T04:57:58;2.08;;;1.88;;
69714;SDS011;56981;53.532;49.398;2023-06-24T05:00:24;2.25;;;1.40;;
69714;SDS011;56981;53.532;49.398;2023-06-24T05:02:51;1.70;;;1.60;;
69714;SDS011;56981;53.532;49.398;2023-06-24T05:05:17;3.42;;;1.70;;
69714;SDS011;56981;53.532;49.398;2023-06-24T05:07:46;2.38;;;2.20;;
69714;SDS011;56981;53.532;49.398;2023-06-24T05:10:12;2.03;;;1.83;;
69714;SDS011;56981;53.532;49.398;2023-06-24T05:12:38;2.05;;;1.85;;
69714;SDS011;56981;53.532;49.398;2023-06-24T05:15:04;2.28;;;2.08;;
69714;SDS011;56981;53.532;49.398;2023-06-24T05:17:31;2.50;;;2.30;;
69714;SDS011;56981;53.532;49.398;2023-06-24T05:19:58;2.50;;;2.22;;
69714;SDS011;56981;53.532;49.398;2023-06-24T05:22:24;2.13;;;1.92;;
69714;SDS011;56981;53.532;49.398;2023-06-24T05:24:50;3.10;;;2.42;;
69714;SDS011;56981;53.532;49.398;2023-06-24T05:27:16;3.10;;;2.45;;
69714;SDS011;56981;53.532;49.398;2023-06-24T05:29:43;2.40;;;2.20;;
69714;SDS011;56981;53.532;49.398;2023-06-24T05:32:09;2.58;;;2.30;;
69714;SDS011;56981;53.532;49.398;2023-06-24T05:34:35;2.63;;;1.95;;
69714;SDS011;56981;53.532;49.398;2023-06-24T05:37:02;4.25;;;2.03;;
69714;SDS011;56981;53.532;49.398;2023-06-24T05:39:28;5.20;;;2.58;;
69714;SDS011;56981;53.532;49.398;2023-06-24T05:41:54;12.80;;;2.83;;
69714;SDS011;56981;53.532;49.398;2023-06-24T05:44:20;2.80;;;2.08;;
69714;SDS011;56981;53.532;49.398;2023-06-24T05:46:46;4.40;;;2.50;;
69714;SDS011;56981;53.532;49.398;2023-06-24T05:49:12;2.50;;;2.30;;
69714;SDS011;56981;53.532;49.398;2023-06-24T05:51:39;2.55;;;2.35;;
69714;SDS011;56981;53.532;49.398;2023-06-24T05:54:05;3.97;;;2.35;;
69714;SDS011;56981;53.532;49.398;2023-06-24T05:56:33;3.28;;;2.40;;
69714;SDS011;56981;53.532;49.398;2023-06-24T05:58:59;2.20;;;2.00;;
69714;SDS011;56981;53.532;49.398;2023-06-24T06:01:26;2.60;;;2.17;;
69714;SDS011;56981;53.532;49.398;2023-06-24T06:03:54;2.58;;;2.05;;
69714;SDS011;56981;53.532;49.398;2023-06-24T06:06:20;2.55;;;2.25;;
69714;SDS011;56981;53.532;49.398;2023-06-24T06:08:47;3.25;;;2.22;;
69714;SDS011;56981;53.532;49.398;2023-06-24T06:11:13;2.95;;;2.35;;
69714;SDS011;56981;53.532;49.398;2023-06-24T06:13:42;4.25;;;2.72;;
69714;SDS011;56981;53.532;49.398;2023-06-24T06:16:08;2.17;;;2.08;;
69714;SDS011;56981;53.532;49.398;2023-06-24T06:18:35;2.35;;;2.17;;
69714;SDS011;56981;53.532;49.398;2023-06-24T06:21:06;4.07;;;2.67;;
69714;SDS011;56981;53.532;49.398;2023-06-24T06:23:32;3.05;;;2.55;;
69714;SDS011;56981;53.532;49.398;2023-06-24T06:25:58;3.58;;;2.38;;
69714;SDS011;56981;53.532;49.398;2023-06-24T06:28:25;2.65;;;2.40;;
69714;SDS011;56981;53.532;49.398;2023-06-24T06:30:51;2.67;;;2.20;;
69714;SDS011;56981;53.532;49.398;2023-06-24T06:33:17;2.55;;;2.35;;
69714;SDS011;56981;53.532;49.398;2023-06-24T06:35:43;2.50;;;2.20;;
69714;SDS011;56981;53.532;49.398;2023-06-24T06:38:10;2.97;;;2.20;;
69714;SDS011;56981;53.532;49.398;2023-06-24T06:40:38;2.53;;;2.33;;
69714;SDS011;56981;53.532;49.398;2023-06-24T06:43:04;2.50;;;2.30;;
69714;SDS011;56981;53.532;49.398;2023-06-24T06:45:31;2.45;;;2.25;;
69714;SDS011;56981;53.532;49.398;2023-06-24T06:47:57;2.88;;;2.28;;
69714;SDS011;56981;53.532;49.398;2023-06-24T06:50:23;2.10;;;2.00;;
69714;SDS011;56981;53.532;49.398;2023-06-24T06:52:50;2.75;;;2.13;;
69714;SDS011;56981;53.532;49.398;2023-06-24T06:55:23;2.40;;;2.20;;
69714;SDS011;56981;53.532;49.398;2023-06-24T06:57:49;4.65;;;2.47;;
69714;SDS011;56981;53.532;49.398;2023-06-24T07:00:16;2.67;;;2.47;;
69714;SDS011;56981;53.532;49.398;2023-06-24T07:02:45;2.50;;;2.30;;
69714;SDS011;56981;53.532;49.398;2023-06-24T07:05:12;3.08;;;2.50;;
69714;SDS011;56981;53.532;49.398;2023-06-24T07:07:39;2.92;;;2.72;;
69714;SDS011;56981;53.532;49.398;2023-06-24T07:10:06;2.40;;;2.20;;
69714;SDS011;56981;53.532;49.398;2023-06-24T07:12:33;3.55;;;2.40;;
69714;SDS011;56981;53.532;49.398;2023-06-24T07:14:59;2.90;;;2.25;;
69714;SDS011;56981;53.532;49.398;2023-06-24T07:17:27;2.42;;;2.22;;
69714;SDS011;56981;53.532;49.398;2023-06-24T07:19:53;3.70;;;2.35;;
69714;SDS011;56981;53.532;49.398;2023-06-24T07:22:22;3.88;;;2.30;;
69714;SDS011;56981;53.532;49.398;2023-06-24T07:24:48;2.60;;;2.40;;
69714;SDS011;56981;53.532;49.398;2023-06-24T07:27:14;3.00;;;2.55;;
69714;SDS011;56981;53.532;49.398;2023-06-24T07:29:41;3.38;;;2.50;;
69714;SDS011;56981;53.532;49.398;2023-06-24T07:32:08;3.42;;;2.33;;
69714;SDS011;56981;53.532;49.398;2023-06-24T07:34:37;3.95;;;2.60;;
69714;SDS011;56981;53.532;49.398;2023-06-24T07:37:04;3.60;;;2.38;;
69714;SDS011;56981;53.532;49.398;2023-06-24T07:39:30;2.53;;;2.33;;
69714;SDS011;56981;53.532;49.398;2023-06-24T07:41:57;2.55;;;2.10;;
69714;SDS011;56981;53.532;49.398;2023-06-24T07:44:23;2.55;;;2.10;;
69714;SDS011;56981;53.532;49.398;2023-06-24T07:46:50;2.17;;;1.92;;
69714;SDS011;56981;53.532;49.398;2023-06-24T07:49:17;2.58;;;2.10;;
69714;SDS011;56981;53.532;49.398;2023-06-24T07:51:44;1.90;;;1.77;;
69714;SDS011;56981;53.532;49.398;2023-06-24T07:54:13;2.72;;;2.30;;
69714;SDS011;56981;53.532;49.398;2023-06-24T07:56:40;4.15;;;1.90;;
69714;SDS011;56981;53.532;49.398;2023-06-24T07:59:07;7.40;;;4.35;;
69714;SDS011;56981;53.532;49.398;2023-06-24T08:01:33;5.78;;;3.20;;
69714;SDS011;56981;53.532;49.398;2023-06-24T08:04:00;4.43;;;2.53;;
69714;SDS011;56981;53.532;49.398;2023-06-24T08:06:26;2.75;;;2.47;;
69714;SDS011;56981;53.532;49.398;2023-06-24T08:08:52;3.95;;;2.42;;
69714;SDS011;56981;53.532;49.398;2023-06-24T08:11:19;3.65;;;2.70;;
69714;SDS011;56981;53.532;49.398;2023-06-24T08:13:47;2.80;;;2.50;;
69714;SDS011;56981;53.532;49.398;2023-06-24T08:16:15;3.28;;;2.97;;
69714;SDS011;56981;53.532;49.398;2023-06-24T08:21:10;2.45;;;2.25;;
69714;SDS011;56981;53.532;49.398;2023-06-24T08:23:36;5.72;;;3.97;;
69714;SDS011;56981;53.532;49.398;2023-06-24T08:26:02;3.75;;;2.30;;
69714;SDS011;56981;53.532;49.398;2023-06-24T08:28:28;2.60;;;2.40;;
69714;SDS011;56981;53.532;49.398;2023-06-24T08:30:54;2.92;;;2.20;;
69714;SDS011;56981;53.532;49.398;2023-06-24T08:33:20;2.60;;;2.13;;
69714;SDS011;56981;53.532;49.398;2023-06-24T08:35:47;2.38;;;2.17;;
69714;SDS011;56981;53.532;49.398;2023-06-24T08:38:13;2.40;;;2.20;;
69714;SDS011;56981;53.532;49.398;2023-06-24T08:40:39;3.00;;;2.10;;
69714;SDS011;56981;53.532;49.398;2023-06-24T08:43:06;2.53;;;2.00;;
69714;SDS011;56981;53.532;49.398;2023-06-24T08:45:32;4.80;;;2.97;;
69714;SDS011;56981;53.532;49.398;2023-06-24T08:47:58;2.13;;;1.92;;
69714;SDS011;56981;53.532;49.398;2023-06-24T08:50:29;3.08;;;2.67;;
69714;SDS011;56981;53.532;49.398;2023-06-24T08:53:00;2.95;;;2.65;;
69714;SDS011;56981;53.532;49.398;2023-06-24T08:55:30;3.13;;;2.22;;
69714;SDS011;56981;53.532;49.398;2023-06-24T08:57:59;3.70;;;2.05;;
69714;SDS011;56981;53.532;49.398;2023-06-24T09:00:26;3.60;;;2.90;;
69714;SDS011;56981;53.532;49.398;2023-06-24T09:02:52;5.45;;;2.92;;
69714;SDS011;56981;53.532;49.398;2023-06-24T09:05:18;3.65;;;2.67;;
69714;SDS011;56981;53.532;49.398;2023-06-24T09:07:45;3.83;;;2.17;;
69714;SDS011;56981;53.532;49.398;2023-06-24T09:10:11;18.10;;;12.05;;
69714;SDS011;56981;53.532;49.398;2023-06-24T09:12:59;3.65;;;3.30;;
69714;SDS011;56981;53.532;49.398;2023-06-24T09:15:32;5.40;;;2.58;;
69714;SDS011;56981;53.532;49.398;2023-06-24T09:17:59;3.10;;;2.58;;
69714;SDS011;56981;53.532;49.398;2023-06-24T09:20:29;2.75;;;2.30;;
69714;SDS011;56981;53.532;49.398;2023-06-24T09:23:00;2.80;;;2.60;;
69714;SDS011;56981;53.532;49.398;2023-06-24T09:25:28;3.63;;;2.38;;
69714;SDS011;56981;53.532;49.398;2023-06-24T09:27:54;2.97;;;2.33;;
69714;SDS011;56981;53.532;49.398;2023-06-24T09:30:24;2.95;;;2.58;;
69714;SDS011;56981;53.532;49.398;2023-06-24T09:32:51;3.05;;;2.75;;
69714;SDS011;56981;53.532;49.398;2023-06-24T09:35:19;3.35;;;2.55;;
69714;SDS011;56981;53.532;49.398;2023-06-24T09:37:53;3.78;;;3.30;;
69714;SDS011;56981;53.532;49.398;2023-06-24T09:40:24;2.30;;;2.08;;
69714;SDS011;56981;53.532;49.398;2023-06-24T09:45:23;3.35;;;2.60;;
69714;SDS011;56981;53.532;49.398;2023-06-24T09:47:51;3.38;;;3.00;;
69714;SDS011;56981;53.532;49.398;2023-06-24T09:50:17;3.58;;;2.72;;
69714;SDS011;56981;53.532;49.398;2023-06-24T09:52:44;4.13;;;2.65;;
69714;SDS011;56981;53.532;49.398;2023-06-24T09:55:16;2.60;;;2.30;;
69714;SDS011;56981;53.532;49.398;2023-06-24T09:57:47;6.18;;;3.95;;
69714;SDS011;56981;53.532;49.398;2023-06-24T10:00:16;3.15;;;2.33;;
69714;SDS011;56981;53.532;49.398;2023-06-24T10:02:45;3.67;;;2.90;;
69714;SDS011;56981;53.532;49.398;2023-06-24T10:05:15;3.95;;;3.00;;
69714;SDS011;56981;53.532;49.398;2023-06-24T10:07:41;6.70;;;5.25;;
69714;SDS011;56981;53.532;49.398;2023-06-24T10:10:08;9.80;;;6.55;;
69714;SDS011;56981;53.532;49.398;2023-06-24T10:12:35;2.92;;;2.65;;
69714;SDS011;56981;53.532;49.398;2023-06-24T10:15:02;5.45;;;2.50;;
69714;SDS011;56981;53.532;49.398;2023-06-24T10:17:30;3.05;;;2.60;;
69714;SDS011;56981;53.532;49.398;2023-06-24T10:19:56;7.65;;;4.90;;
69714;SDS011;56981;53.532;49.398;2023-06-24T10:22:22;3.30;;;2.85;;
69714;SDS011;56981;53.532;49.398;2023-06-24T10:24:50;5.50;;;2.75;;
69714;SDS011;56981;53.532;49.398;2023-06-24T10:27:18;4.30;;;3.00;;
69714;SDS011;56981;53.532;49.398;2023-06-24T10:29:49;3.35;;;2.58;;
69714;SDS011;56981;53.532;49.398;2023-06-24T10:32:17;3.33;;;2.33;;
69714;SDS011;56981;53.532;49.398;2023-06-24T10:34:47;2.78;;;2.40;;
69714;SDS011;56981;53.532;49.398;2023-06-24T10:37:21;6.35;;;3.03;;
69714;SDS011;56981;53.532;49.398;2023-06-24T10:44:50;3.13;;;2.80;;
69714;SDS011;56981;53.532;49.398;2023-06-24T10:47:17;6.88;;;4.15;;
69714;SDS011;56981;53.532;49.398;2023-06-24T10:49:44;6.00;;;2.83;;
69714;SDS011;56981;53.532;49.398;2023-06-24T10:52:11;2.88;;;2.45;;
69714;SDS011;56981;53.532;49.398;2023-06-24T10:54:38;4.63;;;2.78;;
69714;SDS011;56981;53.532;49.398;2023-06-24T10:57:07;3.78;;;2.72;;
69714;SDS011;56981;53.532;49.398;2023-06-24T10:59:34;3.08;;;2.20;;
69714;SDS011;56981;53.532;49.398;2023-06-24T11:02:00;4.38;;;2.78;;
69714;SDS011;56981;53.532;49.398;2023-06-24T11:04:27;3.13;;;2.38;;
69714;SDS011;56981;53.532;49.398;2023-06-24T11:07:00;3.55;;;2.85;;
69714;SDS011;56981;53.532;49.398;2023-06-24T11:09:28;4.25;;;2.85;;
69714;SDS011;56981;53.532;49.398;2023-06-24T11:11:54;4.32;;;2.67;;
69714;SDS011;56981;53.532;49.398;2023-06-24T11:14:24;3.58;;;2.50;;
69714;SDS011;56981;53.532;49.398;2023-06-24T11:16:50;4.82;;;2.70;;
69714;SDS011;56981;53.532;49.398;2023-06-24T11:19:16;6.38;;;2.63;;
69714;SDS011;56981;53.532;49.398;2023-06-24T11:21:42;5.13;;;2.60;;
69714;SDS011;56981;53.532;49.398;2023-06-24T11:24:09;4.18;;;2.60;;
69714;SDS011;56981;53.532;49.398;2023-06-24T11:26:36;2.50;;;2.30;;
69714;SDS011;56981;53.532;49.398;2023-06-24T11:29:12;4.45;;;2.83;;
69714;SDS011;56981;53.532;49.398;2023-06-24T11:31:39;4.07;;;2.30;;
69714;SDS011;56981;53.532;49.398;2023-06-24T11:34:05;3.83;;;2.88;;
69714;SDS011;56981;53.532;49.398;2023-06-24T11:36:31;7.20;;;2.97;;
69714;SDS011;56981;53.532;49.398;2023-06-24T11:38:57;5.50;;;3.20;;
69714;SDS011;56981;53.532;49.398;2023-06-24T11:41:23;3.65;;;2.80;;
69714;SDS011;56981;53.532;49.398;2023-06-24T11:43:51;7.03;;;4.20;;
69714;SDS011;56981;53.532;49.398;2023-06-24T11:46:24;5.35;;;2.58;;
69714;SDS011;56981;53.532;49.398;2023-06-24T11:48:51;3.22;;;2.50;;
69714;SDS011;56981;53.532;49.398;2023-06-24T11:51:18;4.28;;;2.55;;
69714;SDS011;56981;53.532;49.398;2023-06-24T11:53:45;4.20;;;3.15;;
69714;SDS011;56981;53.532;49.398;2023-06-24T11:56:12;3.20;;;2.42;;
69714;SDS011;56981;53.532;49.398;2023-06-24T11:58:38;3.80;;;2.13;;
69714;SDS011;56981;53.532;49.398;2023-06-24T12:01:07;2.75;;;2.15;;
69714;SDS011;56981;53.532;49.398;2023-06-24T12:03:34;7.47;;;2.63;;
69714;SDS011;56981;53.532;49.398;2023-06-24T12:06:00;3.75;;;3.10;;
69714;SDS011;56981;53.532;49.398;2023-06-24T12:08:26;5.47;;;3.20;;
69714;SDS011;56981;53.532;49.398;2023-06-24T12:11:00;6.20;;;2.90;;
69714;SDS011;56981;53.532;49.398;2023-06-24T12:13:29;3.95;;;3.38;;
69714;SDS011;56981;53.532;49.398;2023-06-24T12:15:55;4.50;;;2.40;;
69714;SDS011;56981;53.532;49.398;2023-06-24T12:18:26;3.80;;;2.95;;
69714;SDS011;56981;53.532;49.398;2023-06-24T12:20:55;2.72;;;2.53;;
69714;SDS011;56981;53.532;49.398;2023-06-24T12:23:23;3.97;;;2.92;;
69714;SDS011;56981;53.532;49.398;2023-06-24T12:25:49;2.83;;;2.63;;
69714;SDS011;56981;53.532;49.398;2023-06-24T12:28:16;4.68;;;3.50;;
69714;SDS011;56981;53.532;49.398;2023-06-24T12:30:42;3.30;;;2.97;;
69714;SDS011;56981;53.532;49.398;2023-06-24T12:33:08;4.10;;;2.75;;
69714;SDS011;56981;53.532;49.398;2023-06-24T12:35:34;3.47;;;2.88;;
69714;SDS011;56981;53.532;49.398;2023-06-24T12:38:01;3.42;;;2.90;;
69714;SDS011;56981;53.532;49.398;2023-06-24T12:40:27;6.40;;;3.17;;
69714;SDS011;56981;53.532;49.398;2023-06-24T12:42:53;4.18;;;2.50;;
69714;SDS011;56981;53.532;49.398;2023-06-24T12:45:20;3.30;;;2.60;;
69714;SDS011;56981;53.532;49.398;2023-06-24T12:47:46;3.97;;;2.92;;
69714;SDS011;56981;53.532;49.398;2023-06-24T12:50:12;5.63;;;2.92;;
69714;SDS011;56981;53.532;49.398;2023-06-24T12:52:38;5.88;;;2.95;;
69714;SDS011;56981;53.532;49.398;2023-06-24T12:55:05;4.25;;;2.90;;
69714;SDS011;56981;53.532;49.398;2023-06-24T12:57:31;4.38;;;3.38;;
69714;SDS011;56981;53.532;49.398;2023-06-24T12:59:57;4.03;;;3.53;;
69714;SDS011;56981;53.532;49.398;2023-06-24T13:02:24;4.32;;;3.30;;
69714;SDS011;56981;53.532;49.398;2023-06-24T13:04:50;3.30;;;2.80;;
69714;SDS011;56981;53.532;49.398;2023-06-24T13:07:17;5.00;;;3.40;;
69714;SDS011;56981;53.532;49.398;2023-06-24T13:09:43;5.88;;;3.92;;
69714;SDS011;56981;53.532;49.398;2023-06-24T13:12:09;3.85;;;3.00;;
69714;SDS011;56981;53.532;49.398;2023-06-24T13:14:35;5.30;;;3.67;;
69714;SDS011;56981;53.532;49.398;2023-06-24T13:17:02;3.38;;;2.67;;
69714;SDS011;56981;53.532;49.398;2023-06-24T13:19:28;5.50;;;3.35;;
69714;SDS011;56981;53.532;49.398;2023-06-24T13:21:54;3.70;;;2.92;;
69714;SDS011;56981;53.532;49.398;2023-06-24T13:24:20;6.18;;;3.28;;
69714;SDS011;56981;53.532;49.398;2023-06-24T13:26:46;3.38;;;2.67;;
69714;SDS011;56981;53.532;49.398;2023-06-24T13:29:12;4.45;;;3.25;;
69714;SDS011;56981;53.532;49.398;2023-06-24T13:31:38;5.10;;;3.10;;
69714;SDS011;56981;53.532;49.398;2023-06-24T13:34:05;4.20;;;2.88;;
69714;SDS011;56981;53.532;49.398;2023-06-24T13:36:32;4.60;;;3.80;;
69714;SDS011;56981;53.532;49.398;2023-06-24T13:39:01;4.55;;;3.10;;
69714;SDS011;56981;53.532;49.398;2023-06-24T13:41:28;6.45;;;3.50;;
69714;SDS011;56981;53.532;49.398;2023-06-24T13:44:06;4.40;;;3.05;;
69714;SDS011;56981;53.532;49.398;2023-06-24T13:46:33;5.45;;;3.60;;
69714;SDS011;56981;53.532;49.398;2023-06-24T13:48:59;8.82;;;4.68;;
69714;SDS011;56981;53.532;49.398;2023-06-24T13:51:25;4.40;;;3.03;;
69714;SDS011;56981;53.532;49.398;2023-06-24T13:53:52;6.65;;;3.70;;
69714;SDS011;56981;53.532;49.398;2023-06-24T13:56:23;6.05;;;3.47;;
69714;SDS011;56981;53.532;49.398;2023-06-24T13:58:51;8.27;;;4.03;;
69714;SDS011;56981;53.532;49.398;2023-06-24T14:01:19;6.22;;;4.18;;
69714;SDS011;56981;53.532;49.398;2023-06-24T14:03:46;6.10;;;4.03;;
69714;SDS011;56981;53.532;49.398;2023-06-24T14:06:14;6.65;;;3.80;;
69714;SDS011;56981;53.532;49.398;2023-06-24T14:08:41;7.88;;;4.18;;
69714;SDS011;56981;53.532;49.398;2023-06-24T14:11:08;9.00;;;5.07;;
69714;SDS011;56981;53.532;49.398;2023-06-24T14:13:34;6.55;;;4.07;;
69714;SDS011;56981;53.532;49.398;2023-06-24T14:16:02;7.90;;;4.00;;
69714;SDS011;56981;53.532;49.398;2023-06-24T14:18:29;5.15;;;4.43;;
69714;SDS011;56981;53.532;49.398;2023-06-24T14:20:58;7.35;;;5.07;;
69714;SDS011;56981;53.532;49.398;2023-06-24T14:23:25;8.35;;;4.95;;
69714;SDS011;56981;53.532;49.398;2023-06-24T14:25:52;7.07;;;3.90;;
69714;SDS011;56981;53.532;49.398;2023-06-24T14:28:18;5.85;;;4.03;;
69714;SDS011;56981;53.532;49.398;2023-06-24T14:30:44;6.57;;;4.60;;
69714;SDS011;56981;53.532;49.398;2023-06-24T14:33:11;7.22;;;4.88;;
69714;SDS011;56981;53.532;49.398;2023-06-24T14:35:38;5.70;;;4.05;;
69714;SDS011;56981;53.532;49.398;2023-06-24T14:38:04;5.93;;;4.00;;
69714;SDS011;56981;53.532;49.398;2023-06-24T14:40:33;7.25;;;4.20;;
69714;SDS011;56981;53.532;49.398;2023-06-24T14:43:00;8.73;;;5.35;;
69714;SDS011;56981;53.532;49.398;2023-06-24T14:45:26;8.25;;;5.80;;
69714;SDS011;56981;53.532;49.398;2023-06-24T14:47:56;11.93;;;7.35;;
69714;SDS011;56981;53.532;49.398;2023-06-24T14:50:23;11.20;;;6.82;;
69714;SDS011;56981;53.532;49.398;2023-06-24T14:52:49;10.23;;;6.82;;
69714;SDS011;56981;53.532;49.398;2023-06-24T14:55:15;8.88;;;6.15;;
69714;SDS011;56981;53.532;49.398;2023-06-24T14:57:41;12.98;;;7.93;;
69714;SDS011;56981;53.532;49.398;2023-06-24T15:00:08;10.40;;;7.55;;